sensor_id;sensor_type;location;lat;lon;timestamp;pressure;altitude;pressure_sealevel;temperature;humidity
17525;BME280;40431;52.198;9.902;2023-03-26T00:01:03;99575.41;;;7.64;100.00
17525;BME280;40431;52.198;9.902;2023-03-26T00:03:32;99568.28;;;7.63;100.00
17525;BME280;40431;52.198;9.902;2023-03-26T00:06:03;99570.03;;;7.64;100.00
17525;BME280;40431;52.198;9.902;2023-03-26T00:08:31;99570.88;;;7.64;100.00
17525;BME280;40431;52.198;9.902;2023-03-26T00:10:58;99573.78;;;7.61;100.00
17525;BME280;40431;52.198;9.902;2023-03-26T00:13:25;99566.97;;;7.56;100.00
17525;BME280;40431;52.198;9.902;2023-03-26T00:15:51;99571.97;;;7.62;100.00
17525;BME280;40431;52.198;9.902;2023-03-26T00:18:18;99577.16;;;7.65;100.00
17525;BME280;40431;52.198;9.902;2023-03-26T00:20:47;99583.81;;;7.59;100.00
17525;BME280;40431;52.198;9.902;2023-03-26T00:23:14;99579.28;;;7.60;100.00
17525;BME280;40431;52.198;9.902;2023-03-26T00:25:40;99581.13;;;7.59;100.00
17525;BME280;40431;52.198;9.902;2023-03-26T00:28:07;99583.03;;;7.57;100.00
17525;BME280;40431;52.198;9.902;2023-03-26T00:30:34;99591.03;;;7.59;100.00
17525;BME280;40431;52.198;9.902;2023-03-26T00:33:01;99587.00;;;7.51;100.00
17525;BME280;40431;52.198;9.902;2023-03-26T00:35:28;99587.00;;;7.51;100.00
17525;BME280;40431;52.198;9.902;2023-03-26T00:37:55;99582.56;;;7.50;100.00
17525;BME280;40431;52.198;9.902;2023-03-26T00:40:22;99584.41;;;7.50;100.00
17525;BME280;40431;52.198;9.902;2023-03-26T00:42:49;99588.75;;;7.52;100.00
17525;BME280;40431;52.198;9.902;2023-03-26T00:45:15;99590.44;;;7.53;100.00
17525;BME280;40431;52.198;9.902;2023-03-26T00:47:45;99586.31;;;7.48;100.00
17525;BME280;40431;52.198;9.902;2023-03-26T00:50:11;99592.00;;;7.58;100.00
17525;BME280;40431;52.198;9.902;2023-03-26T00:52:39;99598.28;;;7.58;100.00
17525;BME280;40431;52.198;9.902;2023-03-26T00:55:08;99599.34;;;7.56;100.00
17525;BME280;40431;52.198;9.902;2023-03-26T00:57:34;99601.06;;;7.57;100.00
17525;BME280;40431;52.198;9.902;2023-03-26T01:00:03;99596.44;;;7.59;100.00
17525;BME280;40431;52.198;9.902;2023-03-26T01:02:40;99598.16;;;7.60;100.00
17525;BME280;40431;52.198;9.902;2023-03-26T01:08:15;99600.66;;;7.63;100.00
17525;BME280;40431;52.198;9.902;2023-03-26T01:10:44;99609.91;;;7.59;100.00
17525;BME280;40431;52.198;9.902;2023-03-26T01:13:16;99600.97;;;7.58;100.00
17525;BME280;40431;52.198;9.902;2023-03-26T01:15:43;99610.81;;;7.59;100.00
17525;BME280;40431;52.198;9.902;2023-03-26T01:18:17;99605.47;;;7.58;100.00
17525;BME280;40431;52.198;9.902;2023-03-26T01:20:45;99614.16;;;7.63;100.00
17525;BME280;40431;52.198;9.902;2023-03-26T01:23:18;99619.75;;;7.60;100.00
17525;BME280;40431;52.198;9.902;2023-03-26T01:25:54;99600.88;;;7.60;100.00
17525;BME280;40431;52.198;9.902;2023-03-26T01:28:26;99612.72;;;7.57;100.00
17525;BME280;40431;52.198;9.902;2023-03-26T01:31:02;99622.72;;;7.55;100.00
17525;BME280;40431;52.198;9.902;2023-03-26T01:33:35;99615.72;;;7.52;100.00
17525;BME280;40431;52.198;9.902;2023-03-26T01:36:07;99626.50;;;7.52;100.00
17525;BME280;40431;52.198;9.902;2023-03-26T01:38:39;99616.38;;;7.56;100.00
17525;BME280;40431;52.198;9.902;2023-03-26T01:41:16;99608.59;;;7.51;100.00
17525;BME280;40431;52.198;9.902;2023-03-26T01:43:47;99613.19;;;7.49;100.00
17525;BME280;40431;52.198;9.902;2023-03-26T01:46:17;99613.09;;;7.51;100.00
17525;BME280;40431;52.198;9.902;2023-03-26T01:48:45;99599.91;;;7.46;100.00
17525;BME280;40431;52.198;9.902;2023-03-26T01:51:14;99605.31;;;7.46;100.00
17525;BME280;40431;52.198;9.902;2023-03-26T01:53:51;99597.31;;;7.45;100.00
17525;BME280;40431;52.198;9.902;2023-03-26T01:56:24;99598.56;;;7.39;100.00
17525;BME280;40431;52.198;9.902;2023-03-26T01:59:03;99592.41;;;7.37;100.00
17525;BME280;40431;52.198;9.902;2023-03-26T02:01:36;99595.31;;;7.34;100.00
17525;BME280;40431;52.198;9.902;2023-03-26T02:04:17;99600.03;;;7.30;100.00
17525;BME280;40431;52.198;9.902;2023-03-26T02:06:50;99597.59;;;7.26;100.00
17525;BME280;40431;52.198;9.902;2023-03-26T02:09:20;99596.06;;;7.22;100.00
17525;BME280;40431;52.198;9.902;2023-03-26T02:11:52;99592.59;;;7.19;100.00
17525;BME280;40431;52.198;9.902;2023-03-26T02:14:19;99598.75;;;7.07;100.00
17525;BME280;40431;52.198;9.902;2023-03-26T02:16:45;99593.19;;;7.10;100.00
17525;BME280;40431;52.198;9.902;2023-03-26T02:19:12;99591.22;;;7.12;100.00
17525;BME280;40431;52.198;9.902;2023-03-26T02:21:40;99587.69;;;7.12;100.00
17525;BME280;40431;52.198;9.902;2023-03-26T02:24:07;99583.25;;;7.11;100.00
17525;BME280;40431;52.198;9.902;2023-03-26T02:26:34;99587.97;;;7.07;100.00
17525;BME280;40431;52.198;9.902;2023-03-26T02:29:03;99590.06;;;7.16;100.00
17525;BME280;40431;52.198;9.902;2023-03-26T02:31:29;99590.38;;;7.12;100.00
17525;BME280;40431;52.198;9.902;2023-03-26T02:33:56;99584.78;;;7.15;100.00
17525;BME280;40431;52.198;9.902;2023-03-26T02:36:23;99589.31;;;7.14;100.00
17525;BME280;40431;52.198;9.902;2023-03-26T02:38:52;99589.31;;;7.14;100.00
17525;BME280;40431;52.198;9.902;2023-03-26T02:41:19;99585.84;;;7.12;100.00
17525;BME280;40431;52.198;9.902;2023-03-26T02:43:45;99589.59;;;7.10;100.00
17525;BME280;40431;52.198;9.902;2023-03-26T02:46:13;99576.31;;;7.07;100.00
17525;BME280;40431;52.198;9.902;2023-03-26T02:48:40;99584.13;;;7.11;100.00
17525;BME280;40431;52.198;9.902;2023-03-26T02:51:07;99584.13;;;7.11;100.00
17525;BME280;40431;52.198;9.902;2023-03-26T02:53:33;99579.59;;;7.12;100.00
17525;BME280;40431;52.198;9.902;2023-03-26T02:56:01;99585.84;;;7.12;100.00
17525;BME280;40431;52.198;9.902;2023-03-26T02:58:28;99590.06;;;7.16;100.00
17525;BME280;40431;52.198;9.902;2023-03-26T03:00:55;99575.25;;;7.09;100.00
17525;BME280;40431;52.198;9.902;2023-03-26T03:03:24;99580.28;;;7.15;100.00
17525;BME280;40431;52.198;9.902;2023-03-26T03:05:52;99586.53;;;7.16;100.00
17525;BME280;40431;52.198;9.902;2023-03-26T03:08:19;99582.97;;;7.15;100.00
17525;BME280;40431;52.198;9.902;2023-03-26T03:10:54;99581.34;;;7.13;100.00
17525;BME280;40431;52.198;9.902;2023-03-26T03:13:21;99578.34;;;7.17;100.00
17525;BME280;40431;52.198;9.902;2023-03-26T03:15:48;99581.50;;;7.10;100.00
17525;BME280;40431;52.198;9.902;2023-03-26T03:18:14;99579.69;;;7.10;100.00
17525;BME280;40431;52.198;9.902;2023-03-26T03:20:42;99573.16;;;7.14;100.00
17525;BME280;40431;52.198;9.902;2023-03-26T03:23:09;99582.19;;;7.13;100.00
17525;BME280;40431;52.198;9.902;2023-03-26T03:25:35;99578.22;;;7.05;100.00
17525;BME280;40431;52.198;9.902;2023-03-26T03:28:02;99585.47;;;7.04;100.00
17525;BME280;40431;52.198;9.902;2023-03-26T03:30:29;99586.31;;;7.05;100.00
17525;BME280;40431;52.198;9.902;2023-03-26T03:32:55;99584.50;;;7.05;100.00
17525;BME280;40431;52.198;9.902;2023-03-26T03:35:24;99584.50;;;7.05;100.00
17525;BME280;40431;52.198;9.902;2023-03-26T03:37:53;99574.69;;;7.04;100.00
17525;BME280;40431;52.198;9.902;2023-03-26T03:40:19;99585.47;;;7.04;100.00
17525;BME280;40431;52.198;9.902;2023-03-26T03:42:46;99582.75;;;7.04;100.00
17525;BME280;40431;52.198;9.902;2023-03-26T03:45:12;99570.25;;;7.03;100.00
17525;BME280;40431;52.198;9.902;2023-03-26T03:47:39;99586.25;;;7.06;100.00
17525;BME280;40431;52.198;9.902;2023-03-26T03:50:07;99587.00;;;7.08;100.00
17525;BME280;40431;52.198;9.902;2023-03-26T03:52:34;99588.53;;;7.12;100.00
17525;BME280;40431;52.198;9.902;2023-03-26T03:55:02;99582.97;;;7.15;100.00
17525;BME280;40431;52.198;9.902;2023-03-26T03:57:29;99582.28;;;7.12;100.00
17525;BME280;40431;52.198;9.902;2023-03-26T03:59:57;99592.97;;;7.13;100.00
17525;BME280;40431;52.198;9.902;2023-03-26T04:02:24;99587.38;;;7.16;100.00
17525;BME280;40431;52.198;9.902;2023-03-26T04:04:54;99574.88;;;7.15;100.00
17525;BME280;40431;52.198;9.902;2023-03-26T04:07:22;99581.81;;;7.19;100.00
17525;BME280;40431;52.198;9.902;2023-03-26T04:09:48;99580.47;;;7.12;100.00
17525;BME280;40431;52.198;9.902;2023-03-26T04:12:16;99592.78;;;7.16;100.00
17525;BME280;40431;52.198;9.902;2023-03-26T04:14:43;99584.88;;;7.13;100.00
17525;BME280;40431;52.198;9.902;2023-03-26T04:17:09;99587.38;;;7.16;100.00
17525;BME280;40431;52.198;9.902;2023-03-26T04:19:37;99591.56;;;7.22;100.00
17525;BME280;40431;52.198;9.902;2023-03-26T04:22:04;99589.50;;;7.26;100.00
17525;BME280;40431;52.198;9.902;2023-03-26T04:24:31;99584.03;;;7.27;100.00
17525;BME280;40431;52.198;9.902;2023-03-26T04:26:58;99581.63;;;7.23;100.00
17525;BME280;40431;52.198;9.902;2023-03-26T04:29:29;99573.63;;;7.21;100.00
17525;BME280;40431;52.198;9.902;2023-03-26T04:31:58;99579.72;;;7.25;100.00
17525;BME280;40431;52.198;9.902;2023-03-26T04:34:31;99582.19;;;7.28;100.00
17525;BME280;40431;52.198;9.902;2023-03-26T04:36:59;99580.19;;;7.31;100.00
17525;BME280;40431;52.198;9.902;2023-03-26T04:39:26;99580.84;;;7.35;100.00
17525;BME280;40431;52.198;9.902;2023-03-26T04:41:53;99574.47;;;7.36;100.00
17525;BME280;40431;52.198;9.902;2023-03-26T04:44:20;99575.66;;;7.32;100.00
17525;BME280;40431;52.198;9.902;2023-03-26T04:46:48;99569.09;;;7.36;100.00
17525;BME280;40431;52.198;9.902;2023-03-26T04:49:17;99579.88;;;7.36;100.00
17525;BME280;40431;52.198;9.902;2023-03-26T04:51:44;99578.25;;;7.33;100.00
17525;BME280;40431;52.198;9.902;2023-03-26T04:54:12;99567.75;;;7.29;100.00
17525;BME280;40431;52.198;9.902;2023-03-26T04:56:43;99567.75;;;7.29;100.00
17525;BME280;40431;52.198;9.902;2023-03-26T04:59:21;99565.22;;;7.26;100.00
17525;BME280;40431;52.198;9.902;2023-03-26T05:01:51;99563.53;;;7.25;100.00
17525;BME280;40431;52.198;9.902;2023-03-26T05:04:18;99563.53;;;7.25;100.00
17525;BME280;40431;52.198;9.902;2023-03-26T05:06:44;99559.00;;;7.25;100.00
17525;BME280;40431;52.198;9.902;2023-03-26T05:09:10;99558.88;;;7.27;100.00
17525;BME280;40431;52.198;9.902;2023-03-26T05:11:36;99556.97;;;7.29;100.00
17525;BME280;40431;52.198;9.902;2023-03-26T05:14:03;99555.63;;;7.22;100.00
17525;BME280;40431;52.198;9.902;2023-03-26T05:16:29;99544.81;;;7.22;100.00
17525;BME280;40431;52.198;9.902;2023-03-26T05:19:00;99544.81;;;7.22;100.00
17525;BME280;40431;52.198;9.902;2023-03-26T05:21:29;99548.47;;;7.21;100.00
17525;BME280;40431;52.198;9.902;2023-03-26T05:23:55;99549.63;;;7.16;100.00
17525;BME280;40431;52.198;9.902;2023-03-26T05:26:24;99540.59;;;7.17;100.00
17525;BME280;40431;52.198;9.902;2023-03-26T05:28:51;99547.94;;;7.15;100.00
17525;BME280;40431;52.198;9.902;2023-03-26T05:31:18;99548.59;;;7.19;100.00
17525;BME280;40431;52.198;9.902;2023-03-26T05:33:51;99539.25;;;7.10;100.00
17525;BME280;40431;52.198;9.902;2023-03-26T05:36:20;99539.25;;;7.10;100.00
17525;BME280;40431;52.198;9.902;2023-03-26T05:38:47;99549.16;;;7.10;100.00
17525;BME280;40431;52.198;9.902;2023-03-26T05:41:15;99556.03;;;7.15;100.00
17525;BME280;40431;52.198;9.902;2023-03-26T05:43:42;99551.19;;;7.21;100.00
17525;BME280;40431;52.198;9.902;2023-03-26T05:46:11;99544.94;;;7.20;100.00
17525;BME280;40431;52.198;9.902;2023-03-26T05:48:38;99551.28;;;7.19;100.00
17525;BME280;40431;52.198;9.902;2023-03-26T05:51:05;99553.13;;;7.18;100.00
17525;BME280;40431;52.198;9.902;2023-03-26T05:53:33;99556.50;;;7.22;100.00
17525;BME280;40431;52.198;9.902;2023-03-26T05:56:00;99553.97;;;7.19;100.00
17525;BME280;40431;52.198;9.902;2023-03-26T05:58:28;99548.31;;;7.24;100.00
17525;BME280;40431;52.198;9.902;2023-03-26T06:00:56;99544.66;;;7.25;100.00
17525;BME280;40431;52.198;9.902;2023-03-26T06:03:23;99547.16;;;7.28;100.00
17525;BME280;40431;52.198;9.902;2023-03-26T06:05:50;99542.72;;;7.27;100.00
17525;BME280;40431;52.198;9.902;2023-03-26T06:08:20;99534.63;;;7.27;100.00
17525;BME280;40431;52.198;9.902;2023-03-26T06:10:48;99536.16;;;7.31;100.00
17525;BME280;40431;52.198;9.902;2023-03-26T06:13:16;99535.97;;;7.34;100.00
17525;BME280;40431;52.198;9.902;2023-03-26T06:15:43;99531.44;;;7.34;100.00
17525;BME280;40431;52.198;9.902;2023-03-26T06:18:10;99524.19;;;7.35;100.00
17525;BME280;40431;52.198;9.902;2023-03-26T06:20:36;99524.19;;;7.35;100.00
17525;BME280;40431;52.198;9.902;2023-03-26T06:23:03;99521.91;;;7.43;100.00
17525;BME280;40431;52.198;9.902;2023-03-26T06:25:29;99516.59;;;7.42;100.00
17525;BME280;40431;52.198;9.902;2023-03-26T06:27:57;99519.09;;;7.45;100.00
17525;BME280;40431;52.198;9.902;2023-03-26T06:30:23;99526.97;;;7.48;100.00
17525;BME280;40431;52.198;9.902;2023-03-26T06:32:52;99521.81;;;7.45;100.00
17525;BME280;40431;52.198;9.902;2023-03-26T06:35:20;99528.50;;;7.52;100.00
17525;BME280;40431;52.198;9.902;2023-03-26T06:37:47;99526.50;;;7.56;100.00
17525;BME280;40431;52.198;9.902;2023-03-26T06:40:15;99532.63;;;7.58;100.00
17525;BME280;40431;52.198;9.902;2023-03-26T06:42:42;99525.31;;;7.60;100.00
17525;BME280;40431;52.198;9.902;2023-03-26T06:45:10;99525.31;;;7.60;100.00
17525;BME280;40431;52.198;9.902;2023-03-26T06:47:36;99526.38;;;7.57;100.00
17525;BME280;40431;52.198;9.902;2023-03-26T06:50:04;99523.78;;;7.56;100.00
17525;BME280;40431;52.198;9.902;2023-03-26T06:52:30;99523.78;;;7.56;100.00
17525;BME280;40431;52.198;9.902;2023-03-26T06:54:57;99515.69;;;7.56;100.00
17525;BME280;40431;52.198;9.902;2023-03-26T06:57:23;99519.34;;;7.55;100.00
17525;BME280;40431;52.198;9.902;2023-03-26T06:59:50;99513.22;;;7.52;100.00
17525;BME280;40431;52.198;9.902;2023-03-26T07:02:17;99514.28;;;7.50;100.00
17525;BME280;40431;52.198;9.902;2023-03-26T07:04:44;99509.28;;;7.44;100.00
17525;BME280;40431;52.198;9.902;2023-03-26T07:07:11;99513.28;;;7.51;100.00
17525;BME280;40431;52.198;9.902;2023-03-26T07:09:38;99508.78;;;7.51;100.00
17525;BME280;40431;52.198;9.902;2023-03-26T07:12:05;99504.56;;;7.47;100.00
17525;BME280;40431;52.198;9.902;2023-03-26T07:14:31;99501.75;;;7.49;100.00
17525;BME280;40431;52.198;9.902;2023-03-26T07:16:58;99508.34;;;7.58;100.00
17525;BME280;40431;52.198;9.902;2023-03-26T07:19:26;99505.28;;;7.64;100.00
17525;BME280;40431;52.198;9.902;2023-03-26T07:21:53;99495.72;;;7.73;100.00
17525;BME280;40431;52.198;9.902;2023-03-26T07:24:20;99487.63;;;7.73;100.00
17525;BME280;40431;52.198;9.902;2023-03-26T07:26:51;99502.75;;;7.75;100.00
17525;BME280;40431;52.198;9.902;2023-03-26T07:29:29;99490.22;;;7.74;100.00
17525;BME280;40431;52.198;9.902;2023-03-26T07:32:03;99488.06;;;7.79;100.00
17525;BME280;40431;52.198;9.902;2023-03-26T07:34:45;99487.00;;;7.82;100.00
17525;BME280;40431;52.198;9.902;2023-03-26T07:37:27;99478.13;;;7.80;100.00
17525;BME280;40431;52.198;9.902;2023-03-26T07:40:01;99474.25;;;7.84;100.00
17525;BME280;40431;52.198;9.902;2023-03-26T07:42:42;99476.44;;;7.92;100.00
17525;BME280;40431;52.198;9.902;2023-03-26T07:45:31;99471.06;;;7.92;100.00
17525;BME280;40431;52.198;9.902;2023-03-26T07:48:00;99480.16;;;8.03;100.00
17525;BME280;40431;52.198;9.902;2023-03-26T07:50:30;99477.56;;;8.02;100.00
17525;BME280;40431;52.198;9.902;2023-03-26T07:52:57;99473.91;;;8.03;100.00
17525;BME280;40431;52.198;9.902;2023-03-26T07:55:24;99463.00;;;8.05;100.00
17525;BME280;40431;52.198;9.902;2023-03-26T07:57:59;99467.22;;;8.09;100.00
17525;BME280;40431;52.198;9.902;2023-03-26T08:00:33;99473.47;;;8.09;100.00
17525;BME280;40431;52.198;9.902;2023-03-26T08:03:29;99468.84;;;8.11;100.00
17525;BME280;40431;52.198;9.902;2023-03-26T08:06:04;99473.72;;;8.19;100.00
17525;BME280;40431;52.198;9.902;2023-03-26T08:08:37;99465.06;;;8.27;100.00
17525;BME280;40431;52.198;9.902;2023-03-26T08:11:21;99465.28;;;8.24;100.00
17525;BME280;40431;52.198;9.902;2023-03-26T08:13:57;99464.22;;;8.26;100.00
17525;BME280;40431;52.198;9.902;2023-03-26T08:16:30;99460.53;;;8.27;100.00
17525;BME280;40431;52.198;9.902;2023-03-26T08:19:06;99470.16;;;8.31;100.00
17525;BME280;40431;52.198;9.902;2023-03-26T08:21:41;99462.91;;;8.32;100.00
17525;BME280;40431;52.198;9.902;2023-03-26T08:24:17;99460.53;;;8.40;100.00
17525;BME280;40431;52.198;9.902;2023-03-26T08:26:51;99465.75;;;8.43;100.00
17525;BME280;40431;52.198;9.902;2023-03-26T08:29:24;99454.84;;;8.45;100.00
17525;BME280;40431;52.198;9.902;2023-03-26T08:31:53;99466.00;;;8.53;100.00
17525;BME280;40431;52.198;9.902;2023-03-26T08:34:21;99465.69;;;8.58;100.00
17525;BME280;40431;52.198;9.902;2023-03-26T08:36:49;99473.13;;;8.54;100.00
17525;BME280;40431;52.198;9.902;2023-03-26T08:39:16;99464.91;;;8.56;100.00
17525;BME280;40431;52.198;9.902;2023-03-26T08:42:03;99462.88;;;8.59;100.00
17525;BME280;40431;52.198;9.902;2023-03-26T08:45:03;99453.88;;;8.59;100.00
17525;BME280;40431;52.198;9.902;2023-03-26T08:48:05;99461.25;;;8.57;100.00
17525;BME280;40431;52.198;9.902;2023-03-26T08:50:53;99458.78;;;8.54;100.00
17525;BME280;40431;52.198;9.902;2023-03-26T08:53:48;99449.03;;;8.64;100.00
17525;BME280;40431;52.198;9.902;2023-03-26T08:56:25;99448.06;;;8.65;100.00
17525;BME280;40431;52.198;9.902;2023-03-26T08:59:12;99446.63;;;8.72;100.00
17525;BME280;40431;52.198;9.902;2023-03-26T09:02:09;99443.50;;;8.78;100.00
17525;BME280;40431;52.198;9.902;2023-03-26T09:05:13;99448.25;;;8.88;100.00
17525;BME280;40431;52.198;9.902;2023-03-26T09:08:08;99451.06;;;8.99;100.00
17525;BME280;40431;52.198;9.902;2023-03-26T09:11:20;99447.22;;;9.14;100.00
17525;BME280;40431;52.198;9.902;2023-03-26T09:24:04;99440.75;;;9.41;100.00
17525;BME280;40431;52.198;9.902;2023-03-26T09:26:59;99438.56;;;9.46;100.00
17525;BME280;40431;52.198;9.902;2023-03-26T09:32:45;99444.22;;;9.43;100.00
17525;BME280;40431;52.198;9.902;2023-03-26T09:35:32;99432.47;;;9.56;100.00
17525;BME280;40431;52.198;9.902;2023-03-26T09:38:10;99438.09;;;9.65;100.00
17525;BME280;40431;52.198;9.902;2023-03-26T09:40:52;99437.09;;;9.91;100.00
17525;BME280;40431;52.198;9.902;2023-03-26T09:43:41;99426.97;;;9.81;100.00
17525;BME280;40431;52.198;9.902;2023-03-26T09:46:24;99422.78;;;9.89;100.00
17525;BME280;40431;52.198;9.902;2023-03-26T09:49:09;99425.78;;;9.97;99.83
17525;BME280;40431;52.198;9.902;2023-03-26T09:52:00;99426.88;;;9.94;100.00
17525;BME280;40431;52.198;9.902;2023-03-26T09:54:49;99429.25;;;9.99;99.50
17525;BME280;40431;52.198;9.902;2023-03-26T09:57:41;99430.72;;;10.03;100.00
17525;BME280;40431;52.198;9.902;2023-03-26T10:00:21;99423.81;;;9.99;98.22
17525;BME280;40431;52.198;9.902;2023-03-26T10:03:07;99428.13;;;10.01;99.31
17525;BME280;40431;52.198;9.902;2023-03-26T10:05:47;99414.94;;;9.97;98.60
17525;BME280;40431;52.198;9.902;2023-03-26T10:08:40;99412.34;;;9.95;99.08
17525;BME280;40431;52.198;9.902;2023-03-26T10:11:17;99405.31;;;9.81;100.00
17525;BME280;40431;52.198;9.902;2023-03-26T10:13:55;99399.38;;;9.76;100.00
17525;BME280;40431;52.198;9.902;2023-03-26T10:16:31;99394.16;;;9.73;100.00
17525;BME280;40431;52.198;9.902;2023-03-26T10:19:16;99401.44;;;9.73;100.00
17525;BME280;40431;52.198;9.902;2023-03-26T10:21:53;99405.19;;;9.94;100.00
17525;BME280;40431;52.198;9.902;2023-03-26T10:24:37;99398.50;;;10.11;99.90
17525;BME280;40431;52.198;9.902;2023-03-26T10:27:16;99397.53;;;10.24;97.91
17525;BME280;40431;52.198;9.902;2023-03-26T10:30:16;99399.50;;;10.33;96.45
17525;BME280;40431;52.198;9.902;2023-03-26T10:32:55;99396.13;;;10.42;97.30
17525;BME280;40431;52.198;9.902;2023-03-26T10:35:33;99397.88;;;10.55;95.09
17525;BME280;40431;52.198;9.902;2023-03-26T10:38:13;99392.66;;;10.51;93.81
17525;BME280;40431;52.198;9.902;2023-03-26T10:40:47;99387.53;;;10.60;95.69
17525;BME280;40431;52.198;9.902;2023-03-26T10:43:28;99387.50;;;10.71;96.38
17525;BME280;40431;52.198;9.902;2023-03-26T10:46:20;99377.41;;;10.73;92.48
17525;BME280;40431;52.198;9.902;2023-03-26T10:49:18;99378.88;;;10.66;92.56
17525;BME280;40431;52.198;9.902;2023-03-26T10:51:48;99379.13;;;10.63;90.68
17525;BME280;40431;52.198;9.902;2023-03-26T10:54:25;99377.41;;;10.62;90.33
17525;BME280;40431;52.198;9.902;2023-03-26T10:56:56;99382.47;;;10.78;91.27
17525;BME280;40431;52.198;9.902;2023-03-26T10:59:25;99373.72;;;10.63;89.88
17525;BME280;40431;52.198;9.902;2023-03-26T11:01:59;99372.00;;;10.62;90.75
17525;BME280;40431;52.198;9.902;2023-03-26T11:04:40;99373.34;;;10.56;91.53
17525;BME280;40431;52.198;9.902;2023-03-26T11:07:16;99376.78;;;10.58;92.96
17525;BME280;40431;52.198;9.902;2023-03-26T11:09:50;99374.09;;;10.69;92.50
17525;BME280;40431;52.198;9.902;2023-03-26T11:12:23;99380.00;;;10.75;90.43
17525;BME280;40431;52.198;9.902;2023-03-26T11:14:57;99371.50;;;10.91;90.59
17525;BME280;40431;52.198;9.902;2023-03-26T11:17:36;99374.31;;;11.00;90.33
17525;BME280;40431;52.198;9.902;2023-03-26T11:20:12;99380.84;;;11.09;88.01
17525;BME280;40431;52.198;9.902;2023-03-26T11:22:49;99380.31;;;11.15;87.07
17525;BME280;40431;52.198;9.902;2023-03-26T11:25:36;99373.69;;;11.08;87.88
17525;BME280;40431;52.198;9.902;2023-03-26T11:28:19;99375.19;;;10.90;89.83
17525;BME280;40431;52.198;9.902;2023-03-26T11:30:53;99357.94;;;10.79;91.82
17525;BME280;40431;52.198;9.902;2023-03-26T11:33:27;99365.69;;;10.73;93.40
17525;BME280;40431;52.198;9.902;2023-03-26T11:36:00;99352.38;;;10.35;93.24
17525;BME280;40431;52.198;9.902;2023-03-26T11:38:30;99360.41;;;10.37;95.46
17525;BME280;40431;52.198;9.902;2023-03-26T11:41:02;99361.38;;;10.47;93.79
17525;BME280;40431;52.198;9.902;2023-03-26T11:43:32;99354.72;;;10.51;94.12
17525;BME280;40431;52.198;9.902;2023-03-26T11:46:00;99356.59;;;10.62;94.27
17525;BME280;40431;52.198;9.902;2023-03-26T11:48:30;99360.13;;;10.74;93.07
17525;BME280;40431;52.198;9.902;2023-03-26T11:51:04;99350.94;;;10.65;91.89
17525;BME280;40431;52.198;9.902;2023-03-26T11:53:34;99350.31;;;10.62;94.20
17525;BME280;40431;52.198;9.902;2023-03-26T11:56:04;99354.34;;;10.45;91.83
17525;BME280;40431;52.198;9.902;2023-03-26T11:58:41;99355.47;;;10.42;95.21
17525;BME280;40431;52.198;9.902;2023-03-26T12:01:12;99347.41;;;10.18;93.73
17525;BME280;40431;52.198;9.902;2023-03-26T12:03:39;99351.09;;;10.17;94.35
17525;BME280;40431;52.198;9.902;2023-03-26T12:06:22;99351.47;;;10.24;95.73
17525;BME280;40431;52.198;9.902;2023-03-26T12:08:50;99352.19;;;10.14;96.79
17525;BME280;40431;52.198;9.902;2023-03-26T12:11:17;99340.97;;;10.08;98.25
17525;BME280;40431;52.198;9.902;2023-03-26T12:13:50;99346.25;;;9.98;97.43
17525;BME280;40431;52.198;9.902;2023-03-26T12:16:19;99346.72;;;9.92;97.59
17525;BME280;40431;52.198;9.902;2023-03-26T12:18:57;99342.59;;;9.99;97.32
17525;BME280;40431;52.198;9.902;2023-03-26T12:21:25;99344.31;;;10.00;96.47
17525;BME280;40431;52.198;9.902;2023-03-26T12:23:57;99343.09;;;10.15;96.54
17525;BME280;40431;52.198;9.902;2023-03-26T12:26:38;99340.50;;;10.14;95.86
17525;BME280;40431;52.198;9.902;2023-03-26T12:29:10;99332.75;;;10.09;94.45
17525;BME280;40431;52.198;9.902;2023-03-26T12:31:44;99331.28;;;10.16;94.87
17525;BME280;40431;52.198;9.902;2023-03-26T12:34:16;99339.41;;;10.16;95.12
17525;BME280;40431;52.198;9.902;2023-03-26T12:36:50;99336.94;;;10.25;95.62
17525;BME280;40431;52.198;9.902;2023-03-26T12:39:27;99341.44;;;10.37;96.79
17525;BME280;40431;52.198;9.902;2023-03-26T12:41:56;99342.66;;;10.44;93.99
17525;BME280;40431;52.198;9.902;2023-03-26T12:44:25;99343.41;;;10.46;94.24
17525;BME280;40431;52.198;9.902;2023-03-26T12:47:07;99347.59;;;10.50;94.00
17525;BME280;40431;52.198;9.902;2023-03-26T12:49:34;99342.41;;;10.47;93.90
17525;BME280;40431;52.198;9.902;2023-03-26T12:52:08;99340.94;;;10.43;93.68
17525;BME280;40431;52.198;9.902;2023-03-26T12:54:44;99328.59;;;10.28;93.37
17525;BME280;40431;52.198;9.902;2023-03-26T12:57:18;99343.41;;;10.35;92.44
17525;BME280;40431;52.198;9.902;2023-03-26T12:59:59;99336.41;;;10.44;89.73
17525;BME280;40431;52.198;9.902;2023-03-26T13:02:47;99332.31;;;10.38;88.98
17525;BME280;40431;52.198;9.902;2023-03-26T13:05:35;99328.84;;;10.47;89.21
17525;BME280;40431;52.198;9.902;2023-03-26T13:08:28;99339.19;;;10.65;91.64
17525;BME280;40431;52.198;9.902;2023-03-26T13:11:04;99332.66;;;10.67;90.95
17525;BME280;40431;52.198;9.902;2023-03-26T13:13:49;99331.72;;;10.57;89.70
17525;BME280;40431;52.198;9.902;2023-03-26T13:16:26;99325.06;;;10.61;90.27
17525;BME280;40431;52.198;9.902;2023-03-26T13:18:58;99332.66;;;10.67;91.22
17525;BME280;40431;52.198;9.902;2023-03-26T13:21:30;99323.19;;;10.73;92.61
17525;BME280;40431;52.198;9.902;2023-03-26T13:24:04;99322.19;;;10.74;92.66
17525;BME280;40431;52.198;9.902;2023-03-26T13:26:44;99311.88;;;10.68;91.21
17525;BME280;40431;52.198;9.902;2023-03-26T13:29:19;99315.81;;;10.64;89.00
17525;BME280;40431;52.198;9.902;2023-03-26T13:31:57;99317.50;;;10.65;89.14
17525;BME280;40431;52.198;9.902;2023-03-26T13:34:32;99313.69;;;10.67;88.57
17525;BME280;40431;52.198;9.902;2023-03-26T13:37:06;99311.47;;;10.73;90.26
17525;BME280;40431;52.198;9.902;2023-03-26T13:39:45;99304.94;;;10.75;90.42
17525;BME280;40431;52.198;9.902;2023-03-26T13:42:27;99311.34;;;10.74;89.75
17525;BME280;40431;52.198;9.902;2023-03-26T13:45:05;99300.75;;;10.71;95.32